createdAt,value
2023-01-15T00:02:16.929Z,64.45
2023-01-15T00:04:44.341Z,65.10
2023-01-15T00:07:11.392Z,65.29
2023-01-15T00:09:38.417Z,64.87
2023-01-15T00:12:05.465Z,64.60
2023-01-15T00:14:33.153Z,64.70
2023-01-15T00:17:00.410Z,64.95
2023-01-15T00:19:27.446Z,65.18
2023-01-15T00:21:54.573Z,65.11
2023-01-15T00:24:40.603Z,65.06
2023-01-15T00:27:28.813Z,65.33
2023-01-15T00:29:56.902Z,65.14
2023-01-15T00:32:27.316Z,65.21
2023-01-15T00:34:55.582Z,65.45
2023-01-15T00:37:23.973Z,65.50
2023-01-15T00:39:51.140Z,65.29
2023-01-15T00:42:18.054Z,65.35
2023-01-15T00:44:47.456Z,65.32
2023-01-15T00:47:15.344Z,66.04
2023-01-15T00:49:42.992Z,66.15
2023-01-15T00:52:10.447Z,66.01
2023-01-15T00:54:37.794Z,65.77
2023-01-15T00:57:04.953Z,65.63
2023-01-15T00:59:32.298Z,66.06
2023-01-15T01:02:00.029Z,65.54
2023-01-15T01:04:27.108Z,65.16
2023-01-15T01:06:55.693Z,64.79
2023-01-15T01:09:23.086Z,64.69
2023-01-15T01:11:50.308Z,64.64
2023-01-15T01:14:17.659Z,65.24
2023-01-15T01:16:44.804Z,65.77
2023-01-15T01:19:16.963Z,66.20
2023-01-15T01:21:45.246Z,66.24
2023-01-15T01:24:13.448Z,65.95
2023-01-15T01:26:40.971Z,65.72
2023-01-15T01:29:08.226Z,65.78
2023-01-15T01:31:35.498Z,65.39
2023-01-15T01:34:02.524Z,65.45
2023-01-15T01:36:34.791Z,65.47
2023-01-15T01:39:02.154Z,65.65
2023-01-15T01:41:29.402Z,65.90
2023-01-15T01:44:36.997Z,65.97
2023-01-15T01:47:09.239Z,66.82
2023-01-15T01:49:37.639Z,66.36
2023-01-15T01:52:08.697Z,66.01
2023-01-15T01:54:35.946Z,66.20
2023-01-15T01:57:02.846Z,66.57
2023-01-15T01:59:30.232Z,66.48
2023-01-15T02:01:57.552Z,66.75
2023-01-15T02:04:24.839Z,66.74
2023-01-15T02:06:52.099Z,66.56
2023-01-15T02:09:19.134Z,66.40
2023-01-15T02:11:46.301Z,66.52
2023-01-15T02:14:22.547Z,66.68
2023-01-15T02:16:58.557Z,66.84
2023-01-15T02:19:47.361Z,66.85
2023-01-15T02:22:37.882Z,67.01
2023-01-15T02:25:19.450Z,67.18
2023-01-15T02:28:04.323Z,67.19
2023-01-15T02:30:38.731Z,67.15
2023-01-15T02:33:12.855Z,66.87
2023-01-15T02:35:51.970Z,66.73
2023-01-15T02:38:21.289Z,66.97
2023-01-15T02:40:51.418Z,66.90
2023-01-15T02:43:19.668Z,66.66
2023-01-15T02:45:51.376Z,66.51
2023-01-15T02:48:19.107Z,66.75
2023-01-15T02:50:53.091Z,66.58
2023-01-15T02:53:23.327Z,66.67
2023-01-15T02:55:51.598Z,66.59
2023-01-15T02:58:25.613Z,67.66
2023-01-15T03:00:54.840Z,67.80
2023-01-15T03:03:53.696Z,67.91
2023-01-15T03:06:47.573Z,67.38
2023-01-15T03:09:15.649Z,66.93
2023-01-15T03:11:48.229Z,67.02
2023-01-15T03:14:21.507Z,66.98
2023-01-15T03:16:52.394Z,66.67
2023-01-15T03:19:26.048Z,66.80
2023-01-15T03:21:56.764Z,67.36
2023-01-15T03:24:30.852Z,66.90
2023-01-15T03:26:59.102Z,66.89
2023-01-15T03:29:28.714Z,66.85
2023-01-15T03:31:55.777Z,66.87
2023-01-15T03:34:22.661Z,66.93
2023-01-15T03:36:49.937Z,67.02
2023-01-15T03:39:18.904Z,67.49
2023-01-15T03:41:57.731Z,67.51
2023-01-15T03:44:32.762Z,67.26
2023-01-15T03:47:27.763Z,66.50
2023-01-15T03:50:03.962Z,66.38
2023-01-15T03:52:59.441Z,66.24
2023-01-15T03:56:01.607Z,66.32
2023-01-15T03:58:52.309Z,66.40
2023-01-15T04:01:26.960Z,66.76
2023-01-15T04:03:54.001Z,66.77
2023-01-15T04:06:26.075Z,66.78
2023-01-15T04:08:52.868Z,66.57
2023-01-15T04:11:24.131Z,66.32
2023-01-15T07:38:14.813Z,81.76
2023-01-15T07:40:41.973Z,75.56
2023-01-15T07:43:29.081Z,74.39
2023-01-15T07:46:14.561Z,73.72
2023-01-15T07:49:00.547Z,73.07
2023-01-15T07:51:27.594Z,72.50
2023-01-15T07:53:54.644Z,72.14
2023-01-15T07:56:21.996Z,71.75
2023-01-15T07:58:49.863Z,71.32
2023-01-15T08:01:16.924Z,70.83
2023-01-15T08:03:44.226Z,70.37
2023-01-15T08:06:11.318Z,70.09
2023-01-15T08:08:38.254Z,69.83
2023-01-15T08:11:24.551Z,69.34
2023-01-15T08:14:11.671Z,69.73
2023-01-15T08:16:38.742Z,69.70
2023-01-15T08:19:05.967Z,69.34
2023-01-15T08:21:33.929Z,69.19
2023-01-15T08:24:01.085Z,68.72
2023-01-15T08:26:28.134Z,67.63
2023-01-15T08:28:55.382Z,66.94
2023-01-15T08:31:22.490Z,66.75
2023-01-15T08:33:53.472Z,66.23
2023-01-15T08:36:20.626Z,65.90
2023-01-15T08:38:50.742Z,65.77
2023-01-15T08:41:17.887Z,66.34
2023-01-15T08:43:45.447Z,66.52
2023-01-15T08:46:12.943Z,65.83
2023-01-15T08:48:39.951Z,65.51
2023-01-15T08:51:08.641Z,65.36
2023-01-15T08:53:35.785Z,65.16
2023-01-15T08:56:03.001Z,65.03
2023-01-15T08:58:31.012Z,64.76
2023-01-15T09:01:09.279Z,64.65
2023-01-15T09:03:36.360Z,64.52
2023-01-15T09:06:05.454Z,64.17
2023-01-15T09:08:34.653Z,63.98
2023-01-15T09:11:03.058Z,64.05
2023-01-15T09:13:30.157Z,63.83
2023-01-15T09:16:02.465Z,63.55
2023-01-15T09:18:29.663Z,63.30
2023-01-15T09:20:57.586Z,63.33
2023-01-15T09:23:24.900Z,63.38
2023-01-15T09:25:59.478Z,63.80
2023-01-15T09:28:27.923Z,64.42
2023-01-15T09:30:55.191Z,64.62
2023-01-15T09:33:22.841Z,64.78
2023-01-15T09:35:49.883Z,64.20
2023-01-15T09:38:18.982Z,64.27
2023-01-15T09:40:52.586Z,65.00
2023-01-15T09:43:36.207Z,65.57
2023-01-15T09:46:13.239Z,65.70
2023-01-15T09:49:12.700Z,65.27
2023-01-15T09:51:51.831Z,65.47
2023-01-15T09:54:31.986Z,65.36
2023-01-15T09:56:59.182Z,65.63
2023-01-15T09:59:32.363Z,65.78
2023-01-15T10:02:01.423Z,66.08
2023-01-15T10:04:34.164Z,66.42
2023-01-15T10:07:17.772Z,66.23
2023-01-15T10:09:44.689Z,66.15
2023-01-15T10:12:36.204Z,66.24
2023-01-15T10:15:20.769Z,66.14
2023-01-15T10:17:48.790Z,66.24
2023-01-15T10:20:49.983Z,66.02
2023-01-15T10:23:34.216Z,66.04
2023-01-15T10:26:16.909Z,65.70
2023-01-15T10:29:02.863Z,65.84
2023-01-15T10:31:45.029Z,66.00
2023-01-15T10:34:28.569Z,65.98
2023-01-15T10:36:57.546Z,66.00
2023-01-15T10:39:24.615Z,66.21
2023-01-15T10:42:09.960Z,66.45
2023-01-15T10:44:43.276Z,66.46
2023-01-15T10:47:15.450Z,66.71
2023-01-15T10:49:42.626Z,66.63
2023-01-15T10:52:22.946Z,66.66
2023-01-15T10:54:53.695Z,66.62
2023-01-15T12:41:55.066Z,81.63
2023-01-15T12:45:02.667Z,74.95
2023-01-15T14:58:04.114Z,79.51
2023-01-15T15:00:36.490Z,73.94
2023-01-15T15:03:05.285Z,72.80
2023-01-15T15:05:32.216Z,72.20
2023-01-15T15:07:59.675Z,71.86
2023-01-15T15:10:34.605Z,71.28
2023-01-15T15:13:08.512Z,70.72
2023-01-15T15:15:41.499Z,70.53
2023-01-15T15:18:11.837Z,70.16
2023-01-15T15:20:42.044Z,69.59
2023-01-15T15:23:15.541Z,69.36
2023-01-15T15:25:54.262Z,69.00
2023-01-15T15:28:21.412Z,68.46
2023-01-15T15:30:48.602Z,68.10
2023-01-15T15:33:20.726Z,67.86
2023-01-15T15:35:50.322Z,67.55
2023-01-15T15:38:18.716Z,67.23
2023-01-15T15:40:50.841Z,66.87
2023-01-15T15:44:03.903Z,66.78
2023-01-15T15:46:50.917Z,66.45
2023-01-15T15:49:19.623Z,66.28
2023-01-15T15:51:48.307Z,65.96
2023-01-15T15:54:27.228Z,65.65
2023-01-15T15:57:12.185Z,65.42
2023-01-15T15:59:44.654Z,65.54
2023-01-15T16:02:19.082Z,65.03
2023-01-15T16:04:50.839Z,64.84
2023-01-15T16:07:25.366Z,64.75
2023-01-15T16:10:20.087Z,64.58
2023-01-15T16:12:52.021Z,64.56
2023-01-15T16:15:21.208Z,64.47
2023-01-15T16:17:48.254Z,64.52
2023-01-15T16:20:17.163Z,64.32
2023-01-15T16:22:55.050Z,64.19
2023-01-15T16:25:45.040Z,64.12
2023-01-15T16:28:26.218Z,63.99
2023-01-15T16:30:57.180Z,63.87
2023-01-15T16:33:24.504Z,63.72
2023-01-15T16:35:56.878Z,63.74
2023-01-15T16:38:24.001Z,63.59
2023-01-15T16:40:51.170Z,63.60
2023-01-15T16:43:21.707Z,63.52
2023-01-15T16:46:01.295Z,63.58
2023-01-15T16:48:41.398Z,63.48
2023-01-15T16:51:27.076Z,63.60
2023-01-15T16:53:54.238Z,63.35
2023-01-15T16:56:27.373Z,63.39
2023-01-15T16:58:54.677Z,63.37
2023-01-15T17:01:41.288Z,63.34
2023-01-15T17:04:26.985Z,63.28
2023-01-15T17:07:20.340Z,63.27
2023-01-15T17:09:49.322Z,63.28
2023-01-15T17:12:29.671Z,63.20
2023-01-15T17:15:15.669Z,63.26
2023-01-15T17:17:52.958Z,63.15
2023-01-15T17:20:23.394Z,63.14
2023-01-15T17:22:50.319Z,63.16
2023-01-15T17:25:20.266Z,63.11
2023-01-15T17:27:47.319Z,63.01
2023-01-15T17:30:15.353Z,63.23
2023-01-15T17:32:42.550Z,63.28
2023-01-15T17:35:15.998Z,63.27
2023-01-15T17:37:42.946Z,63.19
2023-01-15T17:40:10.922Z,63.13
2023-01-15T17:42:38.469Z,63.21
2023-01-15T17:45:06.339Z,63.18
2023-01-15T17:47:34.530Z,63.21
2023-01-15T17:50:01.789Z,63.05
2023-01-15T17:52:29.015Z,63.29
2023-01-15T17:55:14.900Z,63.20
2023-01-15T17:58:00.481Z,63.21
2023-01-15T18:00:47.815Z,63.11
2023-01-15T18:03:36.867Z,63.16
2023-01-15T18:06:05.045Z,63.05
2023-01-15T18:08:33.274Z,62.83
2023-01-15T18:11:02.440Z,63.04
2023-01-15T18:13:29.972Z,63.02
2023-01-15T18:15:57.084Z,62.96
2023-01-15T18:18:24.382Z,62.79
2023-01-15T18:20:51.725Z,62.88
2023-01-15T18:23:18.977Z,62.83
2023-01-15T18:25:47.054Z,62.98
2023-01-15T18:28:14.708Z,62.95
2023-01-15T18:30:42.063Z,62.98
2023-01-15T18:33:09.317Z,62.98
2023-01-15T18:35:36.280Z,62.93
2023-01-15T18:38:03.610Z,62.93
2023-01-15T18:40:31.068Z,62.96
2023-01-15T18:43:37.027Z,62.90
2023-01-15T18:46:24.624Z,62.86
2023-01-15T18:48:51.497Z,62.91
2023-01-15T18:51:18.758Z,62.85
2023-01-15T18:53:48.356Z,62.73
2023-01-15T18:56:35.376Z,62.79
2023-01-15T18:59:02.521Z,62.88
2023-01-15T19:01:30.419Z,63.05
2023-01-15T19:03:58.560Z,63.00
2023-01-15T19:06:25.610Z,63.07
2023-01-15T19:08:54.190Z,63.15
2023-01-15T19:11:21.749Z,63.18
2023-01-15T19:14:08.763Z,63.25
2023-01-15T22:30:12.582Z,84.62
2023-01-15T22:32:42.096Z,77.77
2023-01-15T22:35:10.257Z,76.41
2023-01-15T22:37:37.208Z,76.00
2023-01-15T22:40:11.236Z,75.51
2023-01-15T22:42:38.977Z,74.85
2023-01-15T22:45:06.539Z,74.29
2023-01-15T22:47:34.317Z,73.82
2023-01-15T22:50:01.451Z,73.31
2023-01-15T22:52:28.903Z,73.03
2023-01-15T22:54:59.840Z,72.72
2023-01-15T22:57:28.934Z,72.40
2023-01-15T22:59:56.700Z,72.05
2023-01-15T23:02:42.287Z,71.66
2023-01-15T23:05:10.270Z,71.38
2023-01-15T23:07:39.850Z,71.04
2023-01-15T23:10:08.344Z,70.85
2023-01-15T23:12:35.591Z,70.39
2023-01-15T23:15:02.432Z,70.19
2023-01-15T23:17:29.999Z,69.94
2023-01-15T23:19:57.034Z,69.71
2023-01-15T23:22:24.084Z,69.57
2023-01-15T23:24:51.335Z,69.33
2023-01-15T23:27:18.295Z,69.19
2023-01-15T23:29:47.690Z,69.10
2023-01-15T23:32:14.832Z,68.94
2023-01-15T23:34:41.876Z,68.63
2023-01-15T23:37:10.051Z,68.57
2023-01-15T23:39:37.201Z,68.54
2023-01-15T23:42:23.195Z,68.28
2023-01-15T23:45:08.987Z,68.23
2023-01-15T23:47:36.127Z,68.24
2023-01-15T23:50:05.094Z,68.06
2023-01-15T23:52:32.680Z,68.05
2023-01-15T23:54:59.836Z,67.77
2023-01-15T23:57:26.769Z,67.71
2023-01-15T23:59:53.824Z,67.67
